Morgan Fitzgerald Middle School FL US WEATHERSTEM current weather conditions

sailwx.info

Wind from 350 at 11 knots gusting 15

Air temperature 13.9° C
Dewpoint 10.9° C

Last reported at 2019-Nov-17 00:30 UTC.
Time now 2019-Nov-17 02:20 UTC

Location: N 27°53' W 082°44'.
View on Google Maps.

See reports from other nearby stations

  
Tides and Currents Weather Stations Pressure Air Temp Water Temp Dewpoint Dewpoint Depression Visibility Wind Speed Wind Dir Waves Ship Positions
date/time (UTC)wind fromknots sea level pressurealtimeterstation pressurevisibilityair tempwater tempwave heightnotes
2019-Nov-17 00:30 350 11 gusting 15 13.9
2019-Nov-17 00:20 350 11 gusting 15 13.9
2019-Nov-17 00:10 340 10 gusting 15 13.9
2019-Nov-17 00:00 340 10 gusting 15 13.9
2019-Nov-16 23:50 350 11 gusting 16 13.9
2019-Nov-16 23:40 350 11 gusting 16 13.9
2019-Nov-16 23:30 350 10 gusting 16 13.9
2019-Nov-16 15:30 330 9 gusting 9 16.1
2019-Nov-16 15:20 330 9 gusting 9 16.1
2019-Nov-16 15:10 320 9 gusting 9 16.1
2019-Nov-16 15:00 330 9 gusting 9 16.1
2019-Nov-16 14:50 320 9 gusting 9 16.7
2019-Nov-16 14:40 320 9 gusting 9 16.7
2019-Nov-16 14:30 320 9 gusting 9 16.7
2019-Nov-16 14:20 320 9 gusting 9 16.7
2019-Nov-16 14:10 320 9 gusting 9 16.7
2019-Nov-16 14:00 320 9 gusting 9 16.7
2019-Nov-16 13:50 300 9 gusting 9 17.2
2019-Nov-16 08:40 310 6 gusting 6 17.8
2019-Nov-16 08:30 310 6 gusting 6 17.8
2019-Nov-16 08:20 310 6 gusting 6 17.8
2019-Nov-16 08:10 310 7 gusting 7 17.8
2019-Nov-16 08:00 310 7 gusting 7 17.8
2019-Nov-16 07:50 310 6 gusting 6 17.8
2019-Nov-16 07:40 310 6 gusting 6 17.8
2019-Nov-16 07:30 300 7 gusting 7 17.8
2019-Nov-16 07:20 300 7 gusting 7 17.8
2019-Nov-16 07:10 300 7 gusting 7 17.8
2019-Nov-16 07:00 300 7 gusting 7 17.8
2019-Nov-16 05:10 300 8 gusting 8 17.8
2019-Nov-16 04:30 310 9 gusting 9 17.8
2019-Nov-16 04:20 320 8 gusting 8 17.8
2019-Nov-16 04:10 320 9 gusting 9 17.8
2019-Nov-16 04:00 320 8 gusting 8 18.3
2019-Nov-16 03:50 310 8 gusting 13 18.3
2019-Nov-16 03:40 320 9 gusting 14 18.3
2019-Nov-16 01:50 330 6 gusting 6 18.9
2019-Nov-16 01:40 330 6 gusting 6 18.9
2019-Nov-16 01:30 330 6 gusting 6 18.9
2019-Nov-15 22:20 340 9 gusting 13 18.9
2019-Nov-15 22:10 340 9 gusting 13 18.9
2019-Nov-15 22:00 340 9 gusting 13 18.9
2019-Nov-15 21:50 330 9 gusting 13 18.9
2019-Nov-15 21:40 330 9 gusting 9 18.9
2019-Nov-15 21:30 330 9 gusting 9 19.4
2019-Nov-15 21:10 330 9 gusting 9 19.4
2019-Nov-15 21:00 330 8 gusting 8 19.4
2019-Nov-15 20:50 330 10 gusting 14 20.0
2019-Nov-15 20:40 330 10 gusting 10 20.0
2019-Nov-15 20:30 330 11 gusting 17 19.4
2019-Nov-15 20:20 330 11 gusting 14 19.4
2019-Nov-15 20:10 330 11 gusting 16 20.0
2019-Nov-15 15:30 340 6 gusting 6 20.6
2019-Nov-15 14:50 350 6 gusting 6 20.6
2019-Nov-15 14:40 350 5 gusting 5 20.6
2019-Nov-15 14:30 350 5 gusting 5 20.6
2019-Nov-15 14:20 350 4 gusting 4 20.6
2019-Nov-15 14:10 350 4 gusting 4 20.0
2019-Nov-15 14:00 350 5 gusting 5 20.0
2019-Nov-15 13:50 350 6 gusting 6 19.4
2019-Nov-15 06:40 150 1 gusting 1 21.7
2019-Nov-15 06:30 160 1 gusting 1 21.7
2019-Nov-15 06:20 170 0 gusting 0 21.7
2019-Nov-15 06:10 160 1 gusting 1 21.7
2019-Nov-15 06:00 150 1 gusting 1 21.7
2019-Nov-15 05:50 150 1 gusting 1 22.2
2019-Nov-15 05:40 140 2 gusting 2 22.2
2019-Nov-15 05:30 140 2 gusting 2 22.2
2019-Nov-15 05:20 140 2 gusting 2 22.2
2019-Nov-15 05:10 130 3 gusting 3 22.2
2019-Nov-15 03:30 130 5 gusting 5 21.7
2019-Nov-15 02:10 110 6 gusting 6 21.7
2019-Nov-15 02:00 110 7 gusting 7 22.2